createdAt,value
2019-05-16T00:01:38.891Z,13.03
2019-05-16T00:04:09.092Z,15.15
2019-05-16T00:06:39.331Z,14.87
2019-05-16T00:09:09.585Z,14.43
2019-05-16T00:11:39.822Z,11.30
2019-05-16T00:14:10.054Z,12.73
2019-05-16T00:16:40.248Z,15.72
2019-05-16T00:19:10.516Z,12.60
2019-05-16T00:21:40.735Z,12.78
2019-05-16T00:24:10.984Z,15.65
2019-05-16T00:26:41.184Z,15.18
2019-05-16T00:29:11.423Z,14.65
2019-05-16T00:31:41.667Z,15.40
2019-05-16T00:34:11.994Z,14.15
2019-05-16T00:36:42.184Z,18.77
2019-05-16T00:39:12.418Z,14.87
2019-05-16T00:41:42.634Z,13.08
2019-05-16T00:44:12.887Z,13.78
2019-05-16T00:46:43.106Z,15.23
2019-05-16T00:49:13.352Z,15.23
2019-05-16T00:51:43.566Z,13.72
2019-05-16T00:54:13.814Z,16.57
2019-05-16T00:56:44.647Z,16.20
2019-05-16T00:59:15.686Z,19.40
2019-05-16T01:01:49.734Z,16.30
2019-05-16T01:04:18.248Z,18.23
2019-05-16T01:06:48.570Z,17.55
2019-05-16T01:09:18.971Z,17.77
2019-05-16T01:11:49.142Z,15.85
2019-05-16T01:14:19.371Z,16.50
2019-05-16T01:16:49.598Z,16.60
2019-05-16T01:19:19.846Z,15.98
2019-05-16T01:21:50.082Z,14.78
2019-05-16T01:24:20.288Z,20.32
2019-05-16T01:26:50.547Z,15.53
2019-05-16T01:29:20.779Z,17.95
2019-05-16T01:31:50.998Z,15.08
2019-05-16T01:34:21.249Z,15.53
2019-05-16T01:36:51.451Z,13.48
2019-05-16T01:39:21.702Z,16.70
2019-05-16T01:41:51.921Z,13.88
2019-05-16T01:44:22.179Z,13.53
2019-05-16T01:46:52.394Z,16.17
2019-05-16T01:49:22.648Z,15.93
2019-05-16T01:51:52.876Z,14.63
2019-05-16T01:54:23.137Z,14.13
2019-05-16T01:56:53.331Z,15.18
2019-05-16T01:59:23.563Z,16.40
2019-05-16T02:01:53.804Z,15.85
2019-05-16T02:04:24.024Z,15.60
2019-05-16T02:06:55.009Z,13.83
2019-05-16T02:09:27.909Z,16.15
2019-05-16T02:11:58.874Z,14.13
2019-05-16T02:14:29.179Z,19.65
2019-05-16T02:16:59.464Z,14.35
2019-05-16T02:19:29.616Z,14.38
2019-05-16T02:21:59.848Z,14.50
2019-05-16T02:24:30.049Z,15.75
2019-05-16T02:27:00.302Z,15.18
2019-05-16T02:29:30.506Z,17.87
2019-05-16T02:32:01.930Z,17.57
2019-05-16T02:34:32.450Z,17.95
2019-05-16T02:37:19.079Z,16.02
2019-05-16T02:39:34.515Z,15.13
2019-05-16T02:42:04.754Z,16.15
2019-05-16T02:44:34.968Z,16.27
2019-05-16T02:47:05.161Z,14.07
2019-05-16T02:49:35.405Z,14.75
2019-05-16T02:52:05.593Z,15.18
2019-05-16T02:54:35.839Z,13.93
2019-05-16T02:57:06.054Z,15.83
2019-05-16T02:59:36.300Z,13.43
2019-05-16T03:02:07.629Z,12.78
2019-05-16T03:04:40.121Z,15.38
2019-05-16T03:07:13.555Z,16.30
2019-05-16T03:09:41.834Z,14.90
2019-05-16T03:12:12.179Z,15.72
2019-05-16T03:14:44.771Z,15.88
2019-05-16T03:17:21.211Z,15.93
2019-05-16T03:19:52.512Z,16.02
2019-05-16T03:22:24.688Z,15.25
2019-05-16T03:24:54.898Z,15.25
2019-05-16T03:27:25.131Z,16.45
2019-05-16T03:29:55.336Z,19.00
2019-05-16T03:32:25.593Z,15.13
2019-05-16T03:34:55.781Z,15.95
2019-05-16T03:37:26.001Z,15.90
2019-05-16T03:39:56.212Z,15.03
2019-05-16T03:42:26.447Z,14.18
2019-05-16T03:44:56.670Z,15.83
2019-05-16T03:47:26.879Z,17.12
2019-05-16T03:49:57.096Z,15.58
2019-05-16T03:52:30.801Z,17.52
2019-05-16T03:55:01.623Z,13.80
2019-05-16T03:57:32.184Z,14.73
2019-05-16T04:00:02.390Z,15.38
2019-05-16T04:02:32.611Z,15.55
2019-05-16T04:05:04.951Z,14.78
2019-05-16T04:07:35.135Z,15.15
2019-05-16T04:10:10.676Z,14.35
2019-05-16T04:12:41.833Z,16.95
2019-05-16T04:15:11.895Z,17.77
2019-05-16T04:17:42.282Z,18.52
2019-05-16T04:20:12.568Z,17.60
2019-05-16T04:22:42.770Z,16.05
2019-05-16T04:25:13.004Z,16.48
2019-05-16T04:27:43.227Z,16.95
2019-05-16T04:30:13.438Z,15.50
2019-05-16T04:32:43.769Z,16.23
2019-05-16T04:35:13.976Z,17.27
2019-05-16T04:37:44.222Z,15.98
2019-05-16T04:40:14.515Z,15.48
2019-05-16T04:42:44.744Z,13.72
2019-05-16T04:45:15.063Z,15.93
2019-05-16T04:47:45.311Z,18.15
2019-05-16T04:50:15.540Z,17.32
2019-05-16T04:52:45.752Z,16.55
2019-05-16T04:55:15.956Z,14.53
2019-05-16T04:57:47.197Z,14.80
2019-05-16T05:00:21.280Z,16.20
2019-05-16T05:02:51.787Z,15.98
2019-05-16T05:05:23.444Z,15.20
2019-05-16T05:07:53.691Z,17.12
2019-05-16T05:10:23.896Z,16.67
2019-05-16T05:12:54.125Z,21.45
2019-05-16T05:15:24.351Z,16.93
2019-05-16T05:17:54.594Z,17.37
2019-05-16T05:20:24.810Z,24.75
2019-05-16T05:22:55.050Z,16.82
2019-05-16T05:25:25.247Z,17.35
2019-05-16T05:27:55.477Z,17.07
2019-05-16T05:30:25.695Z,16.57
2019-05-16T05:32:55.916Z,15.58
2019-05-16T05:35:26.134Z,25.20
2019-05-16T05:37:56.354Z,16.37
2019-05-16T05:40:29.525Z,17.02
2019-05-16T05:42:59.921Z,15.75
2019-05-16T05:45:30.671Z,17.85
2019-05-16T05:48:00.935Z,17.42
2019-05-16T05:50:31.175Z,18.30
2019-05-16T05:53:01.621Z,15.13
2019-05-16T05:55:31.945Z,16.20
2019-05-16T05:58:02.132Z,16.73
2019-05-16T06:00:32.367Z,18.65
2019-05-16T06:03:02.584Z,20.65
2019-05-16T06:05:32.873Z,18.05
2019-05-16T06:08:03.098Z,18.30
2019-05-16T06:10:33.342Z,16.05
2019-05-16T06:13:03.575Z,19.25
2019-05-16T06:15:33.771Z,23.25
2019-05-16T06:18:04.029Z,20.75
2019-05-16T06:20:34.226Z,17.95
2019-05-16T06:23:05.816Z,19.12
2019-05-16T06:25:36.026Z,19.90
2019-05-16T06:28:06.279Z,21.60
2019-05-16T06:30:36.481Z,24.37
2019-05-16T06:33:06.735Z,22.25
2019-05-16T06:35:36.937Z,18.52
2019-05-16T06:38:07.187Z,24.72
2019-05-16T06:40:37.406Z,23.52
2019-05-16T06:43:07.655Z,21.95
2019-05-16T06:45:40.233Z,20.70
2019-05-16T06:48:10.590Z,24.10
2019-05-16T06:50:40.835Z,21.27
2019-05-16T06:53:11.058Z,22.55
2019-05-16T06:55:41.287Z,21.55
2019-05-16T06:58:11.587Z,23.00
2019-05-16T07:00:41.909Z,20.30
2019-05-16T07:03:12.628Z,21.42
2019-05-16T07:05:43.103Z,18.52
2019-05-16T07:08:13.338Z,21.12
2019-05-16T07:10:43.564Z,22.45
2019-05-16T07:13:13.893Z,22.00
2019-05-16T07:15:44.084Z,20.65
2019-05-16T07:18:14.322Z,21.27
2019-05-16T07:20:44.557Z,22.93
2019-05-16T07:23:14.801Z,22.17
2019-05-16T07:25:45.008Z,23.40
2019-05-16T07:28:15.241Z,19.00
2019-05-16T07:30:45.402Z,20.57
2019-05-16T07:33:15.623Z,19.85
2019-05-16T07:35:45.827Z,19.90
2019-05-16T07:38:16.082Z,19.23
2019-05-16T07:40:46.251Z,19.85
2019-05-16T07:43:16.498Z,21.35
2019-05-16T07:45:46.666Z,21.40
2019-05-16T07:48:16.874Z,25.20
2019-05-16T07:50:47.082Z,21.17
2019-05-16T07:53:17.354Z,24.35
2019-05-16T07:55:47.551Z,25.85
2019-05-16T07:58:21.244Z,23.00
2019-05-16T08:00:58.386Z,21.93
2019-05-16T08:03:22.195Z,22.25
2019-05-16T08:05:52.399Z,18.95
2019-05-16T08:10:55.439Z,18.30
2019-05-16T08:13:25.649Z,17.30
2019-05-16T08:15:55.823Z,16.25
2019-05-16T08:18:26.055Z,15.03
2019-05-16T08:20:56.280Z,14.90
2019-05-16T08:23:26.515Z,14.28
2019-05-16T08:25:56.716Z,14.00
2019-05-16T08:28:26.944Z,14.65
2019-05-16T08:30:57.136Z,10.82
2019-05-16T08:33:27.342Z,11.85
2019-05-16T08:36:01.250Z,10.75
2019-05-16T08:38:30.889Z,5.83
2019-05-16T08:41:11.643Z,3.70
2019-05-16T08:43:34.262Z,5.20
2019-05-16T08:46:05.459Z,6.42
2019-05-16T08:48:35.724Z,6.65
2019-05-16T08:50:05.092Z,17.92
2019-05-16T08:51:05.912Z,6.90
2019-05-16T08:53:36.078Z,5.78
2019-05-16T08:58:55.027Z,3.37
2019-05-16T09:01:22.307Z,6.45
2019-05-16T09:03:52.506Z,6.58
2019-05-16T09:06:23.239Z,6.20
2019-05-16T09:08:54.032Z,5.47
2019-05-16T09:11:35.644Z,5.62
2019-05-16T09:13:58.047Z,6.67
2019-05-16T09:16:28.243Z,7.67
2019-05-16T09:18:58.543Z,8.95
2019-05-16T09:21:28.792Z,8.23
2019-05-16T09:23:58.943Z,10.55
2019-05-16T09:26:29.322Z,10.45
2019-05-16T09:28:59.536Z,8.15
2019-05-16T09:31:29.750Z,7.65
2019-05-16T09:33:59.939Z,8.15
2019-05-16T09:36:30.146Z,6.50
2019-05-16T09:39:00.328Z,5.33
2019-05-16T09:41:46.254Z,7.03
2019-05-16T09:44:02.442Z,5.95
2019-05-16T09:46:32.688Z,6.08
2019-05-16T09:49:19.006Z,5.50
2019-05-16T09:51:37.427Z,7.03
2019-05-16T09:54:07.278Z,7.35
2019-05-16T09:56:38.641Z,5.28
2019-05-16T09:59:08.879Z,5.72
2019-05-16T10:01:39.155Z,5.53
2019-05-16T10:04:09.444Z,8.95
2019-05-16T10:06:39.599Z,7.00
2019-05-16T10:09:11.110Z,6.15
2019-05-16T10:11:42.587Z,7.40
2019-05-16T10:14:17.331Z,6.80
2019-05-16T10:16:47.859Z,6.62
2019-05-16T10:19:18.213Z,8.03
2019-05-16T10:21:48.436Z,10.82
2019-05-16T10:24:18.695Z,7.47
2019-05-16T10:26:53.781Z,9.83
2019-05-16T10:29:20.748Z,9.60
2019-05-16T10:31:53.245Z,8.75
2019-05-16T10:34:23.371Z,8.97
2019-05-16T10:36:53.615Z,9.20
2019-05-16T10:39:23.799Z,7.87
2019-05-16T10:41:58.965Z,6.92
2019-05-16T10:44:29.152Z,8.43
2019-05-16T10:47:00.491Z,8.25
2019-05-16T10:49:36.769Z,8.85
2019-05-16T10:52:02.642Z,9.55
2019-05-16T10:54:32.865Z,7.90
2019-05-16T10:57:03.222Z,9.80
2019-05-16T11:02:07.554Z,7.65
2019-05-16T11:04:52.645Z,8.20
2019-05-16T11:07:09.005Z,8.98
2019-05-16T11:09:39.567Z,7.83
2019-05-16T11:12:11.056Z,10.72
2019-05-16T11:14:41.250Z,7.97
2019-05-16T11:17:12.912Z,6.87
2019-05-16T11:19:43.294Z,7.37
2019-05-16T11:22:13.523Z,5.85
2019-05-16T11:24:43.758Z,7.78
2019-05-16T11:27:14.063Z,7.72
2019-05-16T11:29:44.248Z,7.37
2019-05-16T11:32:14.468Z,6.45
2019-05-16T11:34:44.658Z,7.60
2019-05-16T11:37:17.534Z,7.30
2019-05-16T11:39:46.793Z,9.03
2019-05-16T11:42:17.540Z,6.60
2019-05-16T11:44:48.036Z,6.47
2019-05-16T11:47:18.248Z,7.20
2019-05-16T11:49:48.455Z,7.85
2019-05-16T11:52:18.748Z,6.62
2019-05-16T11:54:48.960Z,7.50
2019-05-16T11:57:19.176Z,6.40
2019-05-16T11:59:49.427Z,5.70
2019-05-16T12:02:19.621Z,7.80
2019-05-16T12:04:49.916Z,6.95
2019-05-16T12:07:20.160Z,6.30
2019-05-16T12:09:55.102Z,5.67
2019-05-16T12:12:22.124Z,5.85
2019-05-16T12:14:54.996Z,6.72
2019-05-16T12:17:24.139Z,5.33
2019-05-16T12:19:57.437Z,5.03
2019-05-16T12:22:26.829Z,6.72
2019-05-16T12:24:57.553Z,5.28
2019-05-16T12:27:32.389Z,7.83
2019-05-16T12:29:59.893Z,4.53
2019-05-16T12:32:30.067Z,6.95
2019-05-16T12:35:00.320Z,4.70
2019-05-16T12:37:30.522Z,5.78
2019-05-16T12:42:57.353Z,4.62
2019-05-16T12:45:27.719Z,5.67
2019-05-16T12:47:57.813Z,5.00
2019-05-16T12:50:28.897Z,6.95
2019-05-16T12:52:59.138Z,5.53
2019-05-16T12:55:29.242Z,5.28
2019-05-16T12:58:12.482Z,4.85
2019-05-16T13:00:31.106Z,6.28
2019-05-16T13:03:01.218Z,5.03
2019-05-16T13:05:31.262Z,3.95
2019-05-16T13:08:01.278Z,5.12
2019-05-16T13:10:31.378Z,5.62
2019-05-16T13:13:01.304Z,3.37
2019-05-16T13:15:31.410Z,4.08
2019-05-16T13:18:01.477Z,5.10
2019-05-16T13:20:31.599Z,4.45
2019-05-16T13:23:01.634Z,4.15
2019-05-16T13:25:31.695Z,3.85
2019-05-16T13:28:01.764Z,5.20
2019-05-16T13:30:31.874Z,4.30
2019-05-16T13:33:01.930Z,7.55
2019-05-16T13:35:31.975Z,5.67
2019-05-16T13:38:01.995Z,4.92
2019-05-16T13:40:32.034Z,3.45
2019-05-16T13:43:02.052Z,3.70
2019-05-16T13:45:32.166Z,4.12
2019-05-16T13:48:02.235Z,3.45
2019-05-16T13:50:32.341Z,3.60
2019-05-16T13:53:02.478Z,4.05
2019-05-16T13:55:33.662Z,3.62
2019-05-16T13:58:03.677Z,4.00
2019-05-16T14:00:33.831Z,4.58
2019-05-16T14:03:03.995Z,3.98
2019-05-16T14:05:34.105Z,2.98
2019-05-16T14:08:06.624Z,3.92
2019-05-16T14:10:37.641Z,4.20
2019-05-16T14:13:07.805Z,4.47
2019-05-16T14:15:37.930Z,3.62
2019-05-16T14:18:08.100Z,4.05
2019-05-16T14:20:38.193Z,3.62
2019-05-16T14:23:08.807Z,4.55
2019-05-16T14:25:39.165Z,3.90
2019-05-16T14:28:09.162Z,6.60
2019-05-16T14:30:39.288Z,3.87
2019-05-16T14:33:13.771Z,4.12
2019-05-16T14:35:41.062Z,5.87
2019-05-16T14:38:11.246Z,3.35
2019-05-16T14:40:41.250Z,3.27
2019-05-16T14:43:11.280Z,3.30
2019-05-16T14:45:41.403Z,4.53
2019-05-16T14:48:11.414Z,3.20
2019-05-16T14:50:41.506Z,4.35
2019-05-16T14:53:13.650Z,4.33
2019-05-16T14:55:43.612Z,5.53
2019-05-16T14:58:13.656Z,4.35
2019-05-16T15:00:44.035Z,3.15
2019-05-16T15:03:14.070Z,6.67
2019-05-16T15:05:44.069Z,3.65
2019-05-16T15:08:14.118Z,3.30
2019-05-16T15:10:46.737Z,4.25
2019-05-16T15:13:17.530Z,5.78
2019-05-16T15:15:47.609Z,4.70
2019-05-16T15:18:17.988Z,3.25
2019-05-16T15:20:48.118Z,4.50
2019-05-16T15:23:18.181Z,3.50
2019-05-16T15:25:49.042Z,2.87
2019-05-16T15:28:19.038Z,3.33
2019-05-16T15:30:49.003Z,4.20
2019-05-16T15:33:19.762Z,4.15
2019-05-16T15:35:50.094Z,2.45
2019-05-16T15:38:21.459Z,3.62
2019-05-16T15:40:51.482Z,2.90
2019-05-16T15:43:21.505Z,3.08
2019-05-16T15:45:53.265Z,3.15
2019-05-16T15:48:23.545Z,2.70
2019-05-16T15:50:53.915Z,3.22
2019-05-16T15:53:24.066Z,2.98
2019-05-16T15:55:54.178Z,3.50
2019-05-16T15:58:26.537Z,2.87
2019-05-16T16:00:57.832Z,3.90
2019-05-16T16:03:28.802Z,2.87
2019-05-16T16:05:58.758Z,2.67
2019-05-16T16:08:28.900Z,4.72
2019-05-16T16:10:58.900Z,3.50
2019-05-16T16:13:29.018Z,2.30
2019-05-16T16:15:58.960Z,2.40
2019-05-16T16:18:29.133Z,2.85
2019-05-16T16:20:59.166Z,2.65
2019-05-16T16:23:29.169Z,3.00
2019-05-16T16:25:59.867Z,4.30
2019-05-16T16:28:30.119Z,3.20
2019-05-16T16:31:00.163Z,2.52
2019-05-16T16:33:30.359Z,2.60
2019-05-16T16:36:01.410Z,2.25
2019-05-16T16:38:31.496Z,7.90
2019-05-16T16:41:01.521Z,2.58
2019-05-16T16:43:31.544Z,2.90
2019-05-16T16:46:08.698Z,4.92
2019-05-16T16:48:33.243Z,2.02
2019-05-16T16:51:03.346Z,3.52
2019-05-16T16:53:33.470Z,2.60
2019-05-16T16:56:03.494Z,2.20
2019-05-16T16:58:33.562Z,4.50
2019-05-16T17:01:03.674Z,2.25
2019-05-16T17:03:33.730Z,4.92
2019-05-16T17:06:03.732Z,2.72
2019-05-16T17:08:33.800Z,1.98
2019-05-16T17:11:03.917Z,2.02
2019-05-16T17:13:33.958Z,3.83
2019-05-16T17:16:04.246Z,4.05
2019-05-16T17:18:36.747Z,2.67
2019-05-16T17:21:07.879Z,6.28
2019-05-16T17:23:37.841Z,3.70
2019-05-16T17:26:07.870Z,3.83
2019-05-16T17:28:38.042Z,4.85
2019-05-16T17:31:08.114Z,4.67
2019-05-16T17:33:38.529Z,6.65
2019-05-16T17:36:09.492Z,3.67
2019-05-16T17:38:39.799Z,6.33
2019-05-16T17:41:09.900Z,3.20
2019-05-16T17:43:40.010Z,2.40
2019-05-16T17:46:10.097Z,2.65
2019-05-16T17:48:40.158Z,3.85
2019-05-16T17:51:10.333Z,5.05
2019-05-16T17:53:40.498Z,6.00
2019-05-16T17:56:10.550Z,7.20
2019-05-16T17:58:40.745Z,6.85
2019-05-16T18:01:10.750Z,6.22
2019-05-16T18:03:40.851Z,5.42
2019-05-16T18:06:11.073Z,2.52
2019-05-16T18:08:41.142Z,2.37
2019-05-16T18:11:11.139Z,2.08
2019-05-16T18:13:41.234Z,5.25
2019-05-16T18:16:11.261Z,4.25
2019-05-16T18:18:41.257Z,4.53
2019-05-16T18:21:11.300Z,6.05
2019-05-16T18:23:41.408Z,6.03
2019-05-16T18:26:11.449Z,7.00
2019-05-16T18:28:41.474Z,5.72
2019-05-16T18:31:11.485Z,4.45
2019-05-16T18:33:41.552Z,3.20
2019-05-16T18:36:11.623Z,2.17
2019-05-16T18:38:41.733Z,4.97
2019-05-16T18:41:11.793Z,5.62
2019-05-16T18:43:41.824Z,4.08
2019-05-16T18:46:11.933Z,5.97
2019-05-16T18:48:42.305Z,3.05
2019-05-16T18:51:12.358Z,2.37
2019-05-16T18:53:42.427Z,3.55
2019-05-16T18:56:12.535Z,1.98
2019-05-16T18:58:42.582Z,2.22
2019-05-16T19:01:12.741Z,2.67
2019-05-16T19:03:42.926Z,2.42
2019-05-16T19:06:12.922Z,3.10
2019-05-16T19:08:42.957Z,1.95
2019-05-16T19:11:13.074Z,4.42
2019-05-16T19:13:43.107Z,2.25
2019-05-16T19:16:13.171Z,2.08
2019-05-16T19:18:43.277Z,2.67
2019-05-16T19:21:13.274Z,2.83
2019-05-16T19:23:43.378Z,3.90
2019-05-16T19:26:13.447Z,3.52
2019-05-16T19:28:43.474Z,5.87
2019-05-16T19:31:13.746Z,3.50
2019-05-16T19:33:43.794Z,6.03
2019-05-16T19:36:13.839Z,4.75
2019-05-16T19:38:46.583Z,6.22
2019-05-16T19:41:18.182Z,6.22
2019-05-16T19:43:48.291Z,7.00
2019-05-16T19:46:18.218Z,7.30
2019-05-16T19:48:48.266Z,6.58
2019-05-16T19:51:18.304Z,10.05
2019-05-16T19:53:48.267Z,7.75
2019-05-16T19:56:18.238Z,7.72
2019-05-16T19:58:48.331Z,6.60
2019-05-16T20:01:19.398Z,7.28
2019-05-16T20:03:49.502Z,8.60
2019-05-16T20:06:19.577Z,9.78
2019-05-16T20:08:49.620Z,8.05
2019-05-16T20:11:19.635Z,6.80
2019-05-16T20:13:49.611Z,5.15
2019-05-16T20:16:19.676Z,8.78
2019-05-16T20:18:49.709Z,8.23
2019-05-16T20:21:19.798Z,5.37
2019-05-16T20:23:49.890Z,6.95
2019-05-16T20:26:19.966Z,7.45
2019-05-16T20:28:50.006Z,8.50
2019-05-16T20:31:20.038Z,7.62
2019-05-16T20:33:50.158Z,6.50
2019-05-16T20:36:20.078Z,6.58
2019-05-16T20:38:50.186Z,5.72
2019-05-16T20:41:20.268Z,10.13
2019-05-16T20:43:50.443Z,6.65
2019-05-16T20:46:20.538Z,8.85
2019-05-16T20:48:50.714Z,5.58
2019-05-16T20:51:20.761Z,5.37
2019-05-16T20:53:50.898Z,6.20
2019-05-16T20:56:21.142Z,5.47
2019-05-16T20:58:51.282Z,4.08
2019-05-16T21:01:21.389Z,6.58
2019-05-16T21:03:51.454Z,4.85
2019-05-16T21:06:21.554Z,7.35
2019-05-16T21:08:53.633Z,5.08
2019-05-16T21:11:23.714Z,5.72
2019-05-16T21:13:53.734Z,5.37
2019-05-16T21:16:23.857Z,5.92
2019-05-16T21:18:53.934Z,4.80
2019-05-16T21:21:23.965Z,5.22
2019-05-16T21:23:53.829Z,5.47
2019-05-16T21:26:26.196Z,6.55
2019-05-16T21:28:56.974Z,7.17
2019-05-16T21:31:27.661Z,6.15
2019-05-16T21:33:57.710Z,5.58
2019-05-16T21:36:27.774Z,4.05
2019-05-16T21:38:57.810Z,4.83
2019-05-16T21:41:27.741Z,5.03
2019-05-16T21:43:57.813Z,4.70
2019-05-16T21:46:27.936Z,5.10
2019-05-16T21:48:58.010Z,4.35
2019-05-16T21:51:28.050Z,3.70
2019-05-16T21:53:58.152Z,4.80
2019-05-16T21:56:29.851Z,5.78
2019-05-16T21:58:59.785Z,5.00
2019-05-16T22:01:29.950Z,4.78
2019-05-16T22:04:00.124Z,4.35
2019-05-16T22:06:30.238Z,5.58
2019-05-16T22:09:00.261Z,3.85
2019-05-16T22:11:30.366Z,4.20
2019-05-16T22:14:00.407Z,5.28
2019-05-16T22:16:30.374Z,4.35
2019-05-16T22:19:00.445Z,4.05
2019-05-16T22:21:30.554Z,3.00
2019-05-16T22:24:00.697Z,3.05
2019-05-16T22:26:30.803Z,3.67
2019-05-16T22:29:01.776Z,3.55
2019-05-16T22:31:33.931Z,3.05
2019-05-16T22:34:03.561Z,3.50
2019-05-16T22:36:33.661Z,3.55
2019-05-16T22:39:06.790Z,4.12
2019-05-16T22:41:37.189Z,3.02
2019-05-16T22:44:08.944Z,5.03
2019-05-16T22:46:39.132Z,3.50
2019-05-16T22:49:09.229Z,3.20
2019-05-16T22:51:39.242Z,3.52
2019-05-16T22:54:09.334Z,4.53
2019-05-16T22:56:39.433Z,2.98
2019-05-16T22:59:09.579Z,5.10
2019-05-16T23:01:39.611Z,5.65
2019-05-16T23:04:09.598Z,2.80
2019-05-16T23:06:41.272Z,3.42
2019-05-16T23:09:11.334Z,3.90
2019-05-16T23:11:41.539Z,6.50
2019-05-16T23:14:11.490Z,2.90
2019-05-16T23:16:41.483Z,3.25
2019-05-16T23:19:11.514Z,4.83
2019-05-16T23:21:41.515Z,3.90
2019-05-16T23:24:11.477Z,4.58
2019-05-16T23:26:41.562Z,5.05
2019-05-16T23:29:11.514Z,4.92
2019-05-16T23:31:41.518Z,6.25
2019-05-16T23:34:11.553Z,7.15
2019-05-16T23:36:41.550Z,6.28
2019-05-16T23:39:11.649Z,5.83
2019-05-16T23:41:41.652Z,6.17
2019-05-16T23:44:11.627Z,5.30
2019-05-16T23:46:41.549Z,7.10
2019-05-16T23:49:11.653Z,4.78
2019-05-16T23:51:41.653Z,5.05
2019-05-16T23:54:11.690Z,5.33
2019-05-16T23:56:41.628Z,5.20
2019-05-16T23:59:11.732Z,8.10
